Latest Coastal Weather Observations for Dunalley

IDT60701

Issued at 12:55 am EST Thursday 17 April 2014 (issued every 10 minutes, with the page automatically refreshed every 10 minutes)

About coastal observations | Map of coastal stations | Coastal observations for TAS | Marine services | Other Formats
Station Details ID: 094254 Name: DUNALLEY (STROUD POINT) Lat: -42.90 Lon: 147.79 Height: 12.43 m
Data from the previous 72 hours. | See also: Recent months at Dunalley
Date/Time
EST
Temp

°C
Wind Pressure Rain
since 9am
mm
Weather Cloud Vis
km
Sea
Height
m
Swell
Dir
 
Speed
knots
Gust
knots
hPa Trend Height
m
Period
s
Dir
17/12:30am 13.6 NE 7 8 1020.5 - 0.0 - - - - - - -
17/12:00am 13.8 NE 8 11 1020.6 - 0.0 - - - - - - -
 
Date/Time
EST
Temp

°C
Wind Pressure Rain
since 9am
mm
Weather Cloud Vis
km
Sea
Height
m
Swell
Dir
 
Speed
knots
Gust
knots
hPa Trend Height
m
Period
s
Dir
16/11:30pm 14.2 NNE 10 11 1020.7 - 0.0 - - - - - - -
16/11:00pm 14.3 NE 11 13 1020.8 - 0.0 - - - - - - -
16/10:30pm 14.4 NE 11 14 1020.8 - 0.0 - - - - - - -
16/10:00pm 14.5 NE 12 15 1020.6 - 0.0 - - - - - - -
16/09:30pm 14.6 NE 13 16 1020.5 - 0.0 - - - - - - -
16/09:00pm 14.7 NE 11 14 1020.8 - 0.0 - - - - - - -
16/08:30pm 15.0 NE 13 17 1020.5 - 0.0 - - - - - - -
16/08:00pm 15.1 NE 15 19 1020.4 - 0.0 - - - - - - -
16/07:30pm 15.1 NE 15 19 1020.2 - 0.0 - - - - - - -
16/07:00pm 15.0 NE 16 21 1020.2 - 0.0 - - - - - - -
16/06:30pm 15.1 NE 16 20 1020.2 - 0.0 - - - - - - -
16/06:00pm 15.1 NE 16 19 1020.0 - 0.0 - - - - - - -
16/05:30pm 15.4 NE 15 19 1020.1 - 0.0 - - - - - - -
16/05:00pm 16.0 ENE 15 19 1020.1 - 0.0 - - - - - - -
16/04:30pm 16.3 ENE 15 18 1020.2 - 0.0 - - - - - - -
16/04:00pm 16.7 NE 16 19 1020.2 - 0.0 - - - - - - -
16/03:30pm 17.3 NE 15 18 1020.3 - 0.0 - - - - - - -
16/03:00pm 17.5 NE 14 17 1020.3 - 0.0 - - - - - - -
16/02:30pm 17.8 NE 13 18 1020.6 - 0.0 - - - - - - -
16/02:00pm 17.4 NE 14 19 1020.7 - 0.0 - - - - - - -
16/01:30pm 17.3 NE 14 18 1020.8 - 0.0 - - - - - - -
16/01:00pm 17.6 NE 14 17 1021.1 - 0.0 - - - - - - -
16/12:30pm 17.1 NE 14 17 1021.6 - 0.0 - - - - - - -
16/12:00pm 17.0 NE 12 15 1022.1 - 0.0 - - - - - - -
16/11:30am 16.2 NE 11 14 1022.4 - 0.0 - - - - - - -
16/11:00am 16.9 NE 12 15 1022.5 - 0.0 - - - - - - -
16/10:30am 16.2 NE 13 16 1022.7 - 0.0 - - - - - - -
16/10:00am 16.6 ENE 8 11 1023.0 - 0.0 - - - - - - -
16/09:30am 15.5 E 7 9 1023.3 - 0.0 - - - - - - -
16/09:00am 14.7 S 4 7 1023.5 - 0.0 - - - - - - -
16/08:30am 13.9 S 2 3 1023.8 - 0.0 - - - - - - -
16/08:00am 12.5 CALM 0 0 1023.8 - 0.0 - - - - - - -
16/07:30am 12.2 CALM 0 2 1023.6 - 0.0 - - - - - - -
16/07:00am 11.8 S 1 2 1023.6 - 0.0 - - - - - - -
16/06:30am 12.1 CALM 0 0 1023.4 - 0.0 - - - - - - -
16/06:00am 12.0 CALM 0 1 1023.5 - 0.0 - - - - - - -
16/05:30am 11.8 CALM 0 0 1023.3 - 0.0 - - - - - - -
16/05:00am 12.0 CALM 0 0 1023.5 - 0.0 - - - - - - -
16/04:30am 12.0 S 1 1 1023.5 - 0.0 - - - - - - -
16/04:00am 11.9 CALM 0 1 1023.4 - 0.0 - - - - - - -
16/03:30am 12.4 S 1 2 1023.5 - 0.0 - - - - - - -
16/03:00am 11.9 S 1 3 1023.6 - 0.0 - - - - - - -
16/02:30am 11.8 S 3 4 1023.9 - 0.0 - - - - - - -
16/02:00am 11.7 S 4 5 1024.4 - 0.0 - - - - - - -
16/01:30am 11.7 S 2 3 1024.7 - 0.0 - - - - - - -
16/01:00am 12.3 CALM 0 0 1025.0 - 0.0 - - - - - - -
16/12:30am 12.4 CALM 0 0 1025.0 - 0.0 - - - - - - -
16/12:00am 12.3 CALM 0 0 1025.1 - 0.0 - - - - - - -
 
Date/Time
EST
Temp

°C
Wind Pressure Rain
since 9am
mm
Weather Cloud Vis
km
Sea
Height
m
Swell
Dir
 
Speed
knots
Gust
knots
hPa Trend Height
m
Period
s
Dir
15/11:30pm 12.3 CALM 0 0 1025.2 - 0.0 - - - - - - -
15/11:00pm 12.4 CALM 0 0 1025.4 - 0.0 - - - - - - -
15/10:30pm 12.2 S 1 1 1025.6 - 0.0 - - - - - - -
15/10:00pm 12.4 S 1 2 1025.6 - 0.0 - - - - - - -
15/09:30pm 13.0 S 4 5 1025.9 - 0.0 - - - - - - -
15/09:00pm 13.2 S 2 3 1025.8 - 0.0 - - - - - - -
15/08:30pm 13.3 S 2 2 1025.9 - 0.0 - - - - - - -
15/08:00pm 13.4 S 1 2 1025.7 - 0.0 - - - - - - -
15/07:30pm 13.3 S 1 4 1025.8 - 0.0 - - - - - - -
15/07:00pm 12.7 S 1 2 1025.6 - 0.0 - - - - - - -
15/06:30pm 12.4 S 1 2 1025.4 - 0.0 - - - - - - -
15/06:00pm 12.7 S 1 2 1025.3 - 0.0 - - - - - - -
15/05:30pm 12.4 S 2 3 1025.1 - 0.0 - - - - - - -
15/05:00pm 13.1 S 2 3 1025.1 - 0.0 - - - - - - -
15/04:30pm 13.8 S 4 6 1025.2 - 0.0 - - - - - - -
15/04:00pm 13.9 S 6 8 1025.4 - 0.0 - - - - - - -
15/03:30pm 14.3 SW 4 6 1025.5 - 0.0 - - - - - - -
15/03:00pm 14.7 WSW 7 10 1025.4 - 0.0 - - - - - - -
15/02:30pm 14.8 WSW 7 11 1025.4 - 0.0 - - - - - - -
15/02:00pm 14.7 SSW 4 5 1025.4 - 0.0 - - - - - - -
15/01:30pm 14.2 SSW 4 7 1025.4 - 0.0 - - - - - - -
15/01:00pm 14.6 S 9 12 1025.6 - 0.0 - - - - - - -
15/12:30pm 15.1 S 7 11 1025.8 - 0.0 - - - - - - -
15/12:00pm 15.2 S 5 9 1026.1 - 0.0 - - - - - - -
15/11:30am 15.2 SSW 4 8 1026.2 - 0.0 - - - - - - -
15/11:00am 14.9 SW 4 7 1026.3 - 0.0 - - - - - - -
15/10:30am 14.8 SW 5 7 1026.3 - 0.0 - - - - - - -
15/10:00am 14.7 SW 5 7 1026.4 - 0.0 - - - - - - -
15/09:30am 14.4 SSW 5 9 1026.4 - 0.0 - - - - - - -
15/09:00am 14.4 SSW 4 6 1026.3 - 0.0 - - - - - - -
15/08:30am 14.0 SW 6 8 1026.3 - 0.0 - - - - - - -
15/08:00am 13.8 SSW 9 12 1026.2 - 0.0 - - - - - - -
15/07:30am 13.7 S 9 13 1025.9 - 0.0 - - - - - - -
15/07:00am 13.7 S 9 13 1025.6 - 0.0 - - - - - - -
15/06:30am 13.4 S 9 11 1025.4 - 0.0 - - - - - - -
15/06:00am 13.7 SSW 11 14 1025.3 - 0.0 - - - - - - -
15/05:30am 13.6 S 8 11 1025.0 - 0.0 - - - - - - -
15/05:00am 13.4 S 7 9 1025.1 - 0.0 - - - - - - -
15/04:30am 13.5 SSW 9 13 1025.2 - 0.0 - - - - - - -
15/04:00am 13.5 S 9 12 1025.1 - 0.0 - - - - - - -
15/03:30am 13.5 S 9 11 1025.0 - 0.0 - - - - - - -
15/03:00am 13.6 S 10 12 1024.9 - 0.0 - - - - - - -
15/02:30am 13.6 S 8 11 1025.0 - 0.0 - - - - - - -
15/02:00am 13.5 SSE 4 7 1025.0 - 0.0 - - - - - - -
15/01:30am 13.7 S 9 12 1025.0 - 0.0 - - - - - - -
15/01:00am 13.7 S 9 11 1025.0 - 0.0 - - - - - - -
15/12:30am 13.7 S 7 9 1025.0 - 0.0 - - - - - - -
15/12:00am 13.4 S 3 6 1025.1 - 0.0 - - - - - - -
 
Date/Time
EST
Temp

°C
Wind Pressure Rain
since 9am
mm
Weather Cloud Vis
km
Sea
Height
m
Swell
Dir
 
Speed
knots
Gust
knots
hPa Trend Height
m
Period
s
Dir
14/11:30pm 13.3 S 3 5 1025.2 - 0.0 - - - - - - -
14/11:00pm 13.3 S 5 6 1025.3 - 0.0 - - - - - - -
14/10:30pm 13.2 S 5 7 1025.5 - 0.0 - - - - - - -
14/10:00pm 13.3 SSE 6 7 1025.6 - 0.0 - - - - - - -
14/09:30pm 13.2 SSE 7 11 1025.6 - 0.0 - - - - - - -
14/09:00pm 13.6 S 10 13 1025.3 - 0.0 - - - - - - -
14/08:30pm 13.1 S 8 11 1025.4 - 0.0 - - - - - - -
14/08:00pm 13.6 S 9 12 1025.2 - 0.0 - - - - - - -
14/07:30pm 14.0 SSE 11 13 1025.0 - 0.0 - - - - - - -
14/07:00pm 14.2 S 12 16 1024.7 - 0.0 - - - - - - -
14/06:30pm 14.3 S 12 15 1024.3 - 0.0 - - - - - - -
14/06:00pm 14.4 S 15 18 1024.0 - 0.0 - - - - - - -
14/05:30pm 14.6 S 12 14 1023.7 - 0.0 - - - - - - -
14/05:00pm 14.9 S 12 15 1023.5 - 0.0 - - - - - - -
14/04:30pm 15.2 SSE 11 14 1023.4 - 0.0 - - - - - - -
14/04:00pm 15.3 S 13 15 1023.2 - 0.0 - - - - - - -
14/03:30pm 15.5 SSE 14 16 1023.0 - 0.0 - - - - - - -
14/03:00pm 16.5 S 11 13 1022.8 - 0.0 - - - - - - -
14/02:30pm 17.1 S 10 13 1022.7 - 0.0 - - - - - - -
14/02:00pm 17.1 S 11 12 1022.6 - 0.0 - - - - - - -
14/01:30pm 18.4 S 8 11 1022.7 - 0.0 - - - - - - -
14/01:00pm 18.4 S 9 11 1022.9 - 0.0 - - - - - - -
14/12:30pm 18.2 W 8 10 1023.1 - 0.0 - - - - - - -
14/12:00pm 18.0 W 8 11 1023.4 - 0.0 - - - - - - -
14/11:30am 17.4 W 8 10 1023.6 - 0.0 - - - - - - -
14/11:00am 17.0 W 7 8 1023.5 - 0.0 - - - - - - -
14/10:30am 16.9 W 7 9 1023.6 - 0.0 - - - - - - -
14/10:00am 16.4 W 7 8 1023.9 - 0.0 - - - - - - -
14/09:30am 16.0 WSW 6 8 1024.0 - 0.0 - - - - - - -
14/09:00am 15.6 W 7 9 1024.0 - 0.0 - - - - - - -
14/08:30am 14.6 W 6 7 1023.8 - 0.0 - - - - - - -
14/08:00am 13.7 W 6 8 1023.7 - 0.0 - - - - - - -
14/07:30am 13.5 W 5 6 1023.5 - 0.0 - - - - - - -
14/07:00am 13.0 W 6 8 1023.4 - 0.0 - - - - - - -
14/06:30am 12.9 W 6 8 1023.2 - 0.0 - - - - - - -
14/06:00am 13.7 W 7 8 1023.0 - 0.0 - - - - - - -
14/05:30am 13.6 SW 6 8 1023.0 - 0.0 - - - - - - -
14/05:00am 13.5 SW 5 8 1022.9 - 0.0 - - - - - - -
14/04:30am 14.1 SSW 6 8 1022.8 - 0.0 - - - - - - -
14/04:00am 14.4 SSW 6 8 1022.9 - 0.0 - - - - - - -
14/03:30am 14.4 S 7 8 1022.7 - 0.0 - - - - - - -
14/03:00am 14.5 S 8 9 1022.7 - 0.0 - - - - - - -
14/02:30am 14.4 SSE 7 10 1022.8 - 0.0 - - - - - - -
14/02:00am 14.1 SSE 3 7 1022.9 - 0.0 - - - - - - -
14/01:30am 14.2 SSE 4 6 1023.0 - 0.0 - - - - - - -
14/01:00am 14.3 SSE 4 6 1023.0 - 0.0 - - - - - - -

Other Formats:

Comma delimited format used in spreadsheet applications
http://www.bom.gov.au/fwo/IDT60701/IDT60701.94951.axf

JavaScript Object Notation format (JSON) in row-major order
http://www.bom.gov.au/fwo/IDT60701/IDT60701.94951.json